sensor_id;sensor_type;location;lat;lon;timestamp;temperature;humidity
65836;SHT30;52595;51.608;7.216;2023-05-14T00:00:17;11.17;85.55
65836;SHT30;52595;51.608;7.216;2023-05-14T00:02:43;11.20;85.64
65836;SHT30;52595;51.608;7.216;2023-05-14T00:05:08;11.37;84.49
65836;SHT30;52595;51.608;7.216;2023-05-14T00:07:34;11.34;85.23
65836;SHT30;52595;51.608;7.216;2023-05-14T00:10:00;11.30;86.26
65836;SHT30;52595;51.608;7.216;2023-05-14T00:12:25;11.19;87.07
65836;SHT30;52595;51.608;7.216;2023-05-14T00:14:52;11.13;87.54
65836;SHT30;52595;51.608;7.216;2023-05-14T00:17:17;11.07;87.09
65836;SHT30;52595;51.608;7.216;2023-05-14T00:19:43;11.06;88.07
65836;SHT30;52595;51.608;7.216;2023-05-14T00:22:08;10.95;87.71
65836;SHT30;52595;51.608;7.216;2023-05-14T00:24:34;10.90;87.76
65836;SHT30;52595;51.608;7.216;2023-05-14T00:27:00;10.82;88.03
65836;SHT30;52595;51.608;7.216;2023-05-14T00:29:25;10.80;88.72
65836;SHT30;52595;51.608;7.216;2023-05-14T00:31:50;10.77;88.73
65836;SHT30;52595;51.608;7.216;2023-05-14T00:34:16;10.65;88.48
65836;SHT30;52595;51.608;7.216;2023-05-14T00:36:41;10.56;89.30
65836;SHT30;52595;51.608;7.216;2023-05-14T00:39:07;10.55;90.16
65836;SHT30;52595;51.608;7.216;2023-05-14T00:41:32;10.49;90.21
65836;SHT30;52595;51.608;7.216;2023-05-14T00:43:57;10.41;90.01
65836;SHT30;52595;51.608;7.216;2023-05-14T00:46:23;10.34;89.97
65836;SHT30;52595;51.608;7.216;2023-05-14T00:48:48;10.28;89.86
65836;SHT30;52595;51.608;7.216;2023-05-14T00:51:15;10.17;89.93
65836;SHT30;52595;51.608;7.216;2023-05-14T00:53:40;10.18;90.31
65836;SHT30;52595;51.608;7.216;2023-05-14T00:56:06;10.17;90.21
65836;SHT30;52595;51.608;7.216;2023-05-14T00:58:32;10.08;90.24
65836;SHT30;52595;51.608;7.216;2023-05-14T01:00:58;9.99;90.37
65836;SHT30;52595;51.608;7.216;2023-05-14T01:03:23;9.90;90.54
65836;SHT30;52595;51.608;7.216;2023-05-14T01:06:00;9.84;90.78
65836;SHT30;52595;51.608;7.216;2023-05-14T01:08:39;9.80;91.03
65836;SHT30;52595;51.608;7.216;2023-05-14T01:13:49;9.70;91.73
65836;SHT30;52595;51.608;7.216;2023-05-14T01:16:18;9.67;91.82
65836;SHT30;52595;51.608;7.216;2023-05-14T01:18:45;9.63;92.20
65836;SHT30;52595;51.608;7.216;2023-05-14T01:21:38;9.67;91.87
65836;SHT30;52595;51.608;7.216;2023-05-14T01:24:05;9.58;91.94
65836;SHT30;52595;51.608;7.216;2023-05-14T01:26:31;9.66;92.16
65836;SHT30;52595;51.608;7.216;2023-05-14T01:29:07;9.77;92.23
65836;SHT30;52595;51.608;7.216;2023-05-14T01:31:37;9.64;91.91
65836;SHT30;52595;51.608;7.216;2023-05-14T01:34:04;9.60;92.09
65836;SHT30;52595;51.608;7.216;2023-05-14T01:36:31;9.60;92.15
65836;SHT30;52595;51.608;7.216;2023-05-14T01:38:58;9.53;92.12
65836;SHT30;52595;51.608;7.216;2023-05-14T01:41:25;9.42;92.34
65836;SHT30;52595;51.608;7.216;2023-05-14T01:43:51;9.39;92.60
65836;SHT30;52595;51.608;7.216;2023-05-14T01:46:18;9.32;92.46
65836;SHT30;52595;51.608;7.216;2023-05-14T01:48:43;9.30;92.64
65836;SHT30;52595;51.608;7.216;2023-05-14T01:51:09;9.26;92.73
65836;SHT30;52595;51.608;7.216;2023-05-14T01:53:34;9.29;92.77
65836;SHT30;52595;51.608;7.216;2023-05-14T01:56:00;9.32;92.64
65836;SHT30;52595;51.608;7.216;2023-05-14T01:58:25;9.33;92.62
65836;SHT30;52595;51.608;7.216;2023-05-14T02:00:51;9.39;92.34
65836;SHT30;52595;51.608;7.216;2023-05-14T02:03:16;9.37;92.06
65836;SHT30;52595;51.608;7.216;2023-05-14T02:05:41;9.43;91.48
65836;SHT30;52595;51.608;7.216;2023-05-14T02:08:07;9.51;91.17
65836;SHT30;52595;51.608;7.216;2023-05-14T02:10:32;9.63;90.37
65836;SHT30;52595;51.608;7.216;2023-05-14T02:12:58;9.57;90.52
65836;SHT30;52595;51.608;7.216;2023-05-14T02:15:23;9.73;89.57
65836;SHT30;52595;51.608;7.216;2023-05-14T02:17:48;9.74;89.66
65836;SHT30;52595;51.608;7.216;2023-05-14T02:20:14;9.76;89.39
65836;SHT30;52595;51.608;7.216;2023-05-14T02:22:40;9.84;88.87
65836;SHT30;52595;51.608;7.216;2023-05-14T02:25:12;9.81;88.73
65836;SHT30;52595;51.608;7.216;2023-05-14T02:27:37;9.76;89.02
65836;SHT30;52595;51.608;7.216;2023-05-14T02:30:03;9.73;89.16
65836;SHT30;52595;51.608;7.216;2023-05-14T02:32:30;9.80;89.01
65836;SHT30;52595;51.608;7.216;2023-05-14T02:34:55;9.77;88.72
65836;SHT30;52595;51.608;7.216;2023-05-14T02:37:21;9.76;88.87
65836;SHT30;52595;51.608;7.216;2023-05-14T02:39:46;9.71;89.04
65836;SHT30;52595;51.608;7.216;2023-05-14T02:42:12;9.70;89.06
65836;SHT30;52595;51.608;7.216;2023-05-14T02:44:37;9.58;89.19
65836;SHT30;52595;51.608;7.216;2023-05-14T02:47:02;9.63;89.97
65836;SHT30;52595;51.608;7.216;2023-05-14T02:49:28;9.53;89.39
65836;SHT30;52595;51.608;7.216;2023-05-14T02:51:53;9.48;90.00
65836;SHT30;52595;51.608;7.216;2023-05-14T02:54:19;9.40;90.25
65836;SHT30;52595;51.608;7.216;2023-05-14T02:56:44;9.37;90.56
65836;SHT30;52595;51.608;7.216;2023-05-14T02:59:09;9.43;90.30
65836;SHT30;52595;51.608;7.216;2023-05-14T03:01:35;9.51;90.25
65836;SHT30;52595;51.608;7.216;2023-05-14T03:04:00;9.50;90.10
65836;SHT30;52595;51.608;7.216;2023-05-14T03:06:25;9.48;90.15
65836;SHT30;52595;51.608;7.216;2023-05-14T03:08:51;9.48;90.37
65836;SHT30;52595;51.608;7.216;2023-05-14T03:11:16;9.39;90.29
65836;SHT30;52595;51.608;7.216;2023-05-14T03:13:42;9.29;90.86
65836;SHT30;52595;51.608;7.216;2023-05-14T03:16:07;9.27;90.81
65836;SHT30;52595;51.608;7.216;2023-05-14T03:18:33;9.20;90.76
65836;SHT30;52595;51.608;7.216;2023-05-14T03:21:00;9.11;91.14
65836;SHT30;52595;51.608;7.216;2023-05-14T03:23:25;9.12;91.62
65836;SHT30;52595;51.608;7.216;2023-05-14T03:25:51;9.18;91.47
65836;SHT30;52595;51.608;7.216;2023-05-14T03:28:16;9.13;91.70
65836;SHT30;52595;51.608;7.216;2023-05-14T03:30:42;9.03;91.46
65836;SHT30;52595;51.608;7.216;2023-05-14T03:33:07;8.96;92.05
65836;SHT30;52595;51.608;7.216;2023-05-14T03:35:32;8.89;91.69
65836;SHT30;52595;51.608;7.216;2023-05-14T03:37:58;8.88;92.31
65836;SHT30;52595;51.608;7.216;2023-05-14T03:40:24;8.89;92.77
65836;SHT30;52595;51.608;7.216;2023-05-14T03:42:50;8.99;93.13
65836;SHT30;52595;51.608;7.216;2023-05-14T03:45:15;8.91;92.64
65836;SHT30;52595;51.608;7.216;2023-05-14T03:47:40;8.89;92.58
65836;SHT30;52595;51.608;7.216;2023-05-14T03:50:06;8.88;92.86
65836;SHT30;52595;51.608;7.216;2023-05-14T03:52:32;8.92;93.16
65836;SHT30;52595;51.608;7.216;2023-05-14T03:54:58;8.89;92.87
65836;SHT30;52595;51.608;7.216;2023-05-14T03:57:23;8.83;93.05
65836;SHT30;52595;51.608;7.216;2023-05-14T03:59:48;8.86;93.05
65836;SHT30;52595;51.608;7.216;2023-05-14T04:02:14;8.89;93.35
65836;SHT30;52595;51.608;7.216;2023-05-14T04:04:39;8.93;93.36
65836;SHT30;52595;51.608;7.216;2023-05-14T04:07:06;8.89;93.15
65836;SHT30;52595;51.608;7.216;2023-05-14T04:09:33;8.86;93.12
65836;SHT30;52595;51.608;7.216;2023-05-14T04:11:58;8.89;93.36
65836;SHT30;52595;51.608;7.216;2023-05-14T04:14:23;8.89;93.37
65836;SHT30;52595;51.608;7.216;2023-05-14T04:16:49;8.89;93.23
65836;SHT30;52595;51.608;7.216;2023-05-14T04:19:14;8.86;93.30
65836;SHT30;52595;51.608;7.216;2023-05-14T04:21:40;8.92;93.34
65836;SHT30;52595;51.608;7.216;2023-05-14T04:24:05;8.95;93.32
65836;SHT30;52595;51.608;7.216;2023-05-14T04:26:31;9.02;93.41
65836;SHT30;52595;51.608;7.216;2023-05-14T04:28:56;9.11;93.55
65836;SHT30;52595;51.608;7.216;2023-05-14T04:31:22;9.19;93.36
65836;SHT30;52595;51.608;7.216;2023-05-14T04:33:47;9.27;93.58
65836;SHT30;52595;51.608;7.216;2023-05-14T04:36:13;9.40;93.77
65836;SHT30;52595;51.608;7.216;2023-05-14T04:38:38;9.44;93.31
65836;SHT30;52595;51.608;7.216;2023-05-14T04:41:04;9.48;93.20
65836;SHT30;52595;51.608;7.216;2023-05-14T04:43:30;9.53;93.37
65836;SHT30;52595;51.608;7.216;2023-05-14T04:45:55;9.60;93.40
65836;SHT30;52595;51.608;7.216;2023-05-14T04:48:21;9.66;93.37
65836;SHT30;52595;51.608;7.216;2023-05-14T04:50:46;9.73;93.33
65836;SHT30;52595;51.608;7.216;2023-05-14T04:53:12;9.74;93.25
65836;SHT30;52595;51.608;7.216;2023-05-14T04:55:37;9.86;93.24
65836;SHT30;52595;51.608;7.216;2023-05-14T04:58:02;9.88;93.04
65836;SHT30;52595;51.608;7.216;2023-05-14T05:00:28;9.88;92.88
65836;SHT30;52595;51.608;7.216;2023-05-14T05:02:54;9.87;92.78
65836;SHT30;52595;51.608;7.216;2023-05-14T05:05:20;9.88;92.87
65836;SHT30;52595;51.608;7.216;2023-05-14T05:07:45;9.87;92.84
65836;SHT30;52595;51.608;7.216;2023-05-14T05:10:11;9.88;92.95
65836;SHT30;52595;51.608;7.216;2023-05-14T05:12:36;9.87;93.08
65836;SHT30;52595;51.608;7.216;2023-05-14T05:15:02;9.98;93.44
65836;SHT30;52595;51.608;7.216;2023-05-14T05:17:28;10.12;93.27
65836;SHT30;52595;51.608;7.216;2023-05-14T05:19:53;10.24;92.91
65836;SHT30;52595;51.608;7.216;2023-05-14T05:22:19;10.27;93.01
65836;SHT30;52595;51.608;7.216;2023-05-14T05:24:44;10.29;92.99
65836;SHT30;52595;51.608;7.216;2023-05-14T05:27:10;10.38;93.04
65836;SHT30;52595;51.608;7.216;2023-05-14T05:29:35;10.44;92.91
65836;SHT30;52595;51.608;7.216;2023-05-14T05:32:01;10.51;92.91
65836;SHT30;52595;51.608;7.216;2023-05-14T05:34:26;10.56;92.62
65836;SHT30;52595;51.608;7.216;2023-05-14T05:36:52;10.66;92.66
65836;SHT30;52595;51.608;7.216;2023-05-14T05:39:17;10.76;92.30
65836;SHT30;52595;51.608;7.216;2023-05-14T05:41:42;10.84;92.12
65836;SHT30;52595;51.608;7.216;2023-05-14T05:44:08;10.86;91.98
65836;SHT30;52595;51.608;7.216;2023-05-14T05:46:34;10.93;91.95
65836;SHT30;52595;51.608;7.216;2023-05-14T05:48:59;11.09;91.66
65836;SHT30;52595;51.608;7.216;2023-05-14T05:51:25;11.23;91.57
65836;SHT30;52595;51.608;7.216;2023-05-14T05:53:50;11.33;91.06
65836;SHT30;52595;51.608;7.216;2023-05-14T05:56:16;11.43;90.87
65836;SHT30;52595;51.608;7.216;2023-05-14T05:58:41;11.55;90.30
65836;SHT30;52595;51.608;7.216;2023-05-14T06:01:06;11.60;90.32
65836;SHT30;52595;51.608;7.216;2023-05-14T06:03:32;11.70;89.95
65836;SHT30;52595;51.608;7.216;2023-05-14T06:05:57;11.77;89.66
65836;SHT30;52595;51.608;7.216;2023-05-14T06:08:22;11.77;89.71
65836;SHT30;52595;51.608;7.216;2023-05-14T06:10:48;11.87;89.57
65836;SHT30;52595;51.608;7.216;2023-05-14T06:13:13;11.95;89.50
65836;SHT30;52595;51.608;7.216;2023-05-14T06:15:39;12.02;89.61
65836;SHT30;52595;51.608;7.216;2023-05-14T06:18:04;12.05;89.04
65836;SHT30;52595;51.608;7.216;2023-05-14T06:20:30;12.11;88.96
65836;SHT30;52595;51.608;7.216;2023-05-14T06:22:55;12.18;88.87
65836;SHT30;52595;51.608;7.216;2023-05-14T06:25:20;12.32;88.75
65836;SHT30;52595;51.608;7.216;2023-05-14T06:27:46;12.42;88.89
65836;SHT30;52595;51.608;7.216;2023-05-14T06:30:12;12.48;88.65
65836;SHT30;52595;51.608;7.216;2023-05-14T06:32:37;12.50;88.39
65836;SHT30;52595;51.608;7.216;2023-05-14T06:35:03;12.55;88.33
65836;SHT30;52595;51.608;7.216;2023-05-14T06:37:28;12.62;88.48
65836;SHT30;52595;51.608;7.216;2023-05-14T06:39:53;12.75;88.09
65836;SHT30;52595;51.608;7.216;2023-05-14T06:42:19;12.79;87.93
65836;SHT30;52595;51.608;7.216;2023-05-14T06:44:44;12.89;88.11
65836;SHT30;52595;51.608;7.216;2023-05-14T06:47:10;12.97;88.03
65836;SHT30;52595;51.608;7.216;2023-05-14T06:49:35;13.11;87.76
65836;SHT30;52595;51.608;7.216;2023-05-14T06:52:01;13.14;87.92
65836;SHT30;52595;51.608;7.216;2023-05-14T06:54:26;13.28;87.18
65836;SHT30;52595;51.608;7.216;2023-05-14T06:56:52;13.44;86.68
65836;SHT30;52595;51.608;7.216;2023-05-14T06:59:18;13.57;86.12
65836;SHT30;52595;51.608;7.216;2023-05-14T07:01:43;13.64;85.60
65836;SHT30;52595;51.608;7.216;2023-05-14T07:04:08;13.71;85.52
65836;SHT30;52595;51.608;7.216;2023-05-14T07:06:34;13.81;85.89
65836;SHT30;52595;51.608;7.216;2023-05-14T07:09:00;13.88;85.68
65836;SHT30;52595;51.608;7.216;2023-05-14T07:11:26;14.01;85.82
65836;SHT30;52595;51.608;7.216;2023-05-14T07:13:51;14.12;85.83
65836;SHT30;52595;51.608;7.216;2023-05-14T07:16:16;14.25;84.84
65836;SHT30;52595;51.608;7.216;2023-05-14T07:18:43;14.37;84.78
65836;SHT30;52595;51.608;7.216;2023-05-14T07:21:08;14.49;84.35
65836;SHT30;52595;51.608;7.216;2023-05-14T07:23:34;14.66;83.71
65836;SHT30;52595;51.608;7.216;2023-05-14T07:26:01;14.85;82.58
65836;SHT30;52595;51.608;7.216;2023-05-14T07:28:27;14.94;82.20
65836;SHT30;52595;51.608;7.216;2023-05-14T07:30:52;15.05;81.74
65836;SHT30;52595;51.608;7.216;2023-05-14T07:33:18;15.25;79.97
65836;SHT30;52595;51.608;7.216;2023-05-14T07:35:43;15.30;80.40
65836;SHT30;52595;51.608;7.216;2023-05-14T07:38:09;15.41;80.88
65836;SHT30;52595;51.608;7.216;2023-05-14T07:40:34;15.54;81.42
65836;SHT30;52595;51.608;7.216;2023-05-14T07:42:59;15.65;79.91
65836;SHT30;52595;51.608;7.216;2023-05-14T07:45:25;15.75;80.25
65836;SHT30;52595;51.608;7.216;2023-05-14T07:47:50;15.79;79.31
65836;SHT30;52595;51.608;7.216;2023-05-14T07:50:17;15.92;79.42
65836;SHT30;52595;51.608;7.216;2023-05-14T07:52:43;16.02;78.96
65836;SHT30;52595;51.608;7.216;2023-05-14T07:55:09;15.99;78.53
65836;SHT30;52595;51.608;7.216;2023-05-14T07:57:34;16.03;77.90
65836;SHT30;52595;51.608;7.216;2023-05-14T08:00:00;16.08;77.82
65836;SHT30;52595;51.608;7.216;2023-05-14T08:02:25;16.16;77.84
65836;SHT30;52595;51.608;7.216;2023-05-14T08:04:51;16.23;78.07
65836;SHT30;52595;51.608;7.216;2023-05-14T08:07:16;16.30;77.98
65836;SHT30;52595;51.608;7.216;2023-05-14T08:09:42;16.42;77.58
65836;SHT30;52595;51.608;7.216;2023-05-14T08:12:07;16.46;76.75
65836;SHT30;52595;51.608;7.216;2023-05-14T08:14:33;16.50;76.45
65836;SHT30;52595;51.608;7.216;2023-05-14T08:16:58;16.56;75.71
65836;SHT30;52595;51.608;7.216;2023-05-14T08:19:24;16.65;75.40
65836;SHT30;52595;51.608;7.216;2023-05-14T08:21:51;16.73;76.28
65836;SHT30;52595;51.608;7.216;2023-05-14T08:24:18;16.75;75.17
65836;SHT30;52595;51.608;7.216;2023-05-14T08:26:43;16.87;76.12
65836;SHT30;52595;51.608;7.216;2023-05-14T08:29:08;17.01;76.28
65836;SHT30;52595;51.608;7.216;2023-05-14T08:31:34;17.08;75.15
65836;SHT30;52595;51.608;7.216;2023-05-14T08:33:59;17.24;74.42
65836;SHT30;52595;51.608;7.216;2023-05-14T08:36:25;17.32;73.28
65836;SHT30;52595;51.608;7.216;2023-05-14T08:38:50;17.40;72.25
65836;SHT30;52595;51.608;7.216;2023-05-14T08:41:16;17.58;73.41
65836;SHT30;52595;51.608;7.216;2023-05-14T08:46:27;17.72;70.05
65836;SHT30;52595;51.608;7.216;2023-05-14T08:48:56;17.89;71.36
65836;SHT30;52595;51.608;7.216;2023-05-14T08:51:23;18.00;70.45
65836;SHT30;52595;51.608;7.216;2023-05-14T08:53:50;17.96;68.33
65836;SHT30;52595;51.608;7.216;2023-05-14T08:56:16;18.13;69.90
65836;SHT30;52595;51.608;7.216;2023-05-14T08:58:42;18.24;68.61
65836;SHT30;52595;51.608;7.216;2023-05-14T09:01:08;18.26;68.74
65836;SHT30;52595;51.608;7.216;2023-05-14T09:03:34;18.36;68.98
65836;SHT30;52595;51.608;7.216;2023-05-14T09:06:00;18.45;68.27
65836;SHT30;52595;51.608;7.216;2023-05-14T09:08:26;18.58;68.00
65836;SHT30;52595;51.608;7.216;2023-05-14T09:10:51;18.61;67.18
65836;SHT30;52595;51.608;7.216;2023-05-14T09:13:17;18.74;67.36
65836;SHT30;52595;51.608;7.216;2023-05-14T09:15:42;18.78;65.84
65836;SHT30;52595;51.608;7.216;2023-05-14T09:18:08;18.83;65.46
65836;SHT30;52595;51.608;7.216;2023-05-14T09:20:34;18.88;65.18
65836;SHT30;52595;51.608;7.216;2023-05-14T09:22:59;18.94;64.57
65836;SHT30;52595;51.608;7.216;2023-05-14T09:25:26;18.95;63.14
65836;SHT30;52595;51.608;7.216;2023-05-14T09:27:52;19.04;63.20
65836;SHT30;52595;51.608;7.216;2023-05-14T09:30:19;19.14;63.22
65836;SHT30;52595;51.608;7.216;2023-05-14T09:32:44;19.18;63.68
65836;SHT30;52595;51.608;7.216;2023-05-14T09:35:15;19.26;61.05
65836;SHT30;52595;51.608;7.216;2023-05-14T09:37:43;19.33;61.54
65836;SHT30;52595;51.608;7.216;2023-05-14T09:40:09;19.39;60.73
65836;SHT30;52595;51.608;7.216;2023-05-14T09:42:35;19.46;60.87
65836;SHT30;52595;51.608;7.216;2023-05-14T09:45:00;19.60;61.37
65836;SHT30;52595;51.608;7.216;2023-05-14T09:47:26;19.67;59.92
65836;SHT30;52595;51.608;7.216;2023-05-14T09:49:51;19.77;60.80
65836;SHT30;52595;51.608;7.216;2023-05-14T09:52:22;19.84;60.52
65836;SHT30;52595;51.608;7.216;2023-05-14T09:54:49;20.01;60.06
65836;SHT30;52595;51.608;7.216;2023-05-14T09:57:15;20.11;61.04
65836;SHT30;52595;51.608;7.216;2023-05-14T09:59:41;20.21;61.83
65836;SHT30;52595;51.608;7.216;2023-05-14T10:02:30;20.48;62.19
65836;SHT30;52595;51.608;7.216;2023-05-14T10:05:02;20.55;61.41
65836;SHT30;52595;51.608;7.216;2023-05-14T10:07:34;20.48;60.12
65836;SHT30;52595;51.608;7.216;2023-05-14T10:10:02;20.04;60.42
65836;SHT30;52595;51.608;7.216;2023-05-14T10:12:37;20.20;62.11
65836;SHT30;52595;51.608;7.216;2023-05-14T10:15:09;20.40;60.24
65836;SHT30;52595;51.608;7.216;2023-05-14T10:17:39;20.56;58.50
65836;SHT30;52595;51.608;7.216;2023-05-14T10:20:06;20.92;58.27
65836;SHT30;52595;51.608;7.216;2023-05-14T10:22:33;21.15;57.99
65836;SHT30;52595;51.608;7.216;2023-05-14T10:25:01;21.33;57.03
65836;SHT30;52595;51.608;7.216;2023-05-14T10:27:27;21.50;56.28
65836;SHT30;52595;51.608;7.216;2023-05-14T10:29:54;21.57;54.57
65836;SHT30;52595;51.608;7.216;2023-05-14T10:32:24;21.71;53.95
65836;SHT30;52595;51.608;7.216;2023-05-14T10:34:53;21.63;53.70
65836;SHT30;52595;51.608;7.216;2023-05-14T10:37:25;21.61;54.98
65836;SHT30;52595;51.608;7.216;2023-05-14T10:39:52;21.71;54.63
65836;SHT30;52595;51.608;7.216;2023-05-14T10:42:42;21.74;51.98
65836;SHT30;52595;51.608;7.216;2023-05-14T10:45:12;22.01;50.69
65836;SHT30;52595;51.608;7.216;2023-05-14T10:47:41;21.84;49.94
65836;SHT30;52595;51.608;7.216;2023-05-14T10:50:09;22.00;49.26
65836;SHT30;52595;51.608;7.216;2023-05-14T10:52:35;22.21;51.00
65836;SHT30;52595;51.608;7.216;2023-05-14T10:55:05;22.07;51.68
65836;SHT30;52595;51.608;7.216;2023-05-14T10:57:38;22.59;50.79
65836;SHT30;52595;51.608;7.216;2023-05-14T11:00:05;23.05;50.75
65836;SHT30;52595;51.608;7.216;2023-05-14T11:02:38;23.87;47.98
65836;SHT30;52595;51.608;7.216;2023-05-14T11:07:39;25.39;46.20
65836;SHT30;52595;51.608;7.216;2023-05-14T11:10:10;25.59;46.04
65836;SHT30;52595;51.608;7.216;2023-05-14T11:12:37;26.12;43.31
65836;SHT30;52595;51.608;7.216;2023-05-14T11:15:06;26.21;44.15
65836;SHT30;52595;51.608;7.216;2023-05-14T11:17:33;25.69;43.63
65836;SHT30;52595;51.608;7.216;2023-05-14T11:19:59;26.38;43.79
65836;SHT30;52595;51.608;7.216;2023-05-14T11:22:25;26.63;43.86
65836;SHT30;52595;51.608;7.216;2023-05-14T11:24:50;26.97;42.05
65836;SHT30;52595;51.608;7.216;2023-05-14T11:27:16;27.20;40.91
65836;SHT30;52595;51.608;7.216;2023-05-14T11:29:44;27.37;39.95
65836;SHT30;52595;51.608;7.216;2023-05-14T11:32:13;27.17;41.44
65836;SHT30;52595;51.608;7.216;2023-05-14T11:34:39;27.82;40.01
65836;SHT30;52595;51.608;7.216;2023-05-14T11:37:08;28.59;39.62
65836;SHT30;52595;51.608;7.216;2023-05-14T11:39:35;29.10;38.56
65836;SHT30;52595;51.608;7.216;2023-05-14T11:42:03;28.86;39.05
65836;SHT30;52595;51.608;7.216;2023-05-14T11:44:30;28.76;38.80
65836;SHT30;52595;51.608;7.216;2023-05-14T11:46:56;29.23;37.35
65836;SHT30;52595;51.608;7.216;2023-05-14T11:49:23;30.01;36.61
65836;SHT30;52595;51.608;7.216;2023-05-14T11:51:56;30.00;35.97
65836;SHT30;52595;51.608;7.216;2023-05-14T11:54:25;30.33;36.47
65836;SHT30;52595;51.608;7.216;2023-05-14T11:56:50;29.88;37.75
65836;SHT30;52595;51.608;7.216;2023-05-14T11:59:16;30.26;38.87
65836;SHT30;52595;51.608;7.216;2023-05-14T12:01:44;29.82;37.30
65836;SHT30;52595;51.608;7.216;2023-05-14T12:04:10;29.70;37.57
65836;SHT30;52595;51.608;7.216;2023-05-14T12:06:37;30.39;35.32
65836;SHT30;52595;51.608;7.216;2023-05-14T12:09:04;30.11;35.25
65836;SHT30;52595;51.608;7.216;2023-05-14T12:11:30;30.25;35.27
65836;SHT30;52595;51.608;7.216;2023-05-14T12:13:58;30.83;35.24
65836;SHT30;52595;51.608;7.216;2023-05-14T12:16:29;30.83;34.38
65836;SHT30;52595;51.608;7.216;2023-05-14T12:18:59;30.42;35.83
65836;SHT30;52595;51.608;7.216;2023-05-14T12:21:26;30.98;34.49
65836;SHT30;52595;51.608;7.216;2023-05-14T12:23:57;30.75;33.40
65836;SHT30;52595;51.608;7.216;2023-05-14T12:26:24;31.16;34.88
65836;SHT30;52595;51.608;7.216;2023-05-14T12:28:59;30.73;34.35
65836;SHT30;52595;51.608;7.216;2023-05-14T12:31:29;31.20;33.40
65836;SHT30;52595;51.608;7.216;2023-05-14T12:33:55;30.79;35.48
65836;SHT30;52595;51.608;7.216;2023-05-14T12:36:21;30.59;36.10
65836;SHT30;52595;51.608;7.216;2023-05-14T12:38:46;30.79;33.86
65836;SHT30;52595;51.608;7.216;2023-05-14T12:41:12;31.40;33.46
65836;SHT30;52595;51.608;7.216;2023-05-14T12:43:41;30.94;34.64
65836;SHT30;52595;51.608;7.216;2023-05-14T12:46:06;31.82;35.00
65836;SHT30;52595;51.608;7.216;2023-05-14T12:48:32;31.99;34.36
65836;SHT30;52595;51.608;7.216;2023-05-14T12:50:57;31.34;32.81
65836;SHT30;52595;51.608;7.216;2023-05-14T12:53:23;31.20;33.76
65836;SHT30;52595;51.608;7.216;2023-05-14T12:55:48;31.67;34.05
65836;SHT30;52595;51.608;7.216;2023-05-14T12:58:13;32.06;34.39
65836;SHT30;52595;51.608;7.216;2023-05-14T13:00:39;31.61;35.08
65836;SHT30;52595;51.608;7.216;2023-05-14T13:03:04;31.68;35.43
65836;SHT30;52595;51.608;7.216;2023-05-14T13:05:30;31.14;35.80
65836;SHT30;52595;51.608;7.216;2023-05-14T13:07:58;31.55;34.96
65836;SHT30;52595;51.608;7.216;2023-05-14T13:10:24;30.67;36.29
65836;SHT30;52595;51.608;7.216;2023-05-14T13:12:49;31.34;34.67
65836;SHT30;52595;51.608;7.216;2023-05-14T13:15:16;31.74;34.73
65836;SHT30;52595;51.608;7.216;2023-05-14T13:17:42;31.93;33.37
65836;SHT30;52595;51.608;7.216;2023-05-14T13:20:08;31.11;34.16
65836;SHT30;52595;51.608;7.216;2023-05-14T13:22:33;30.43;35.64
65836;SHT30;52595;51.608;7.216;2023-05-14T13:24:58;30.84;34.78
65836;SHT30;52595;51.608;7.216;2023-05-14T13:27:24;30.63;35.53
65836;SHT30;52595;51.608;7.216;2023-05-14T13:29:50;30.69;35.50
65836;SHT30;52595;51.608;7.216;2023-05-14T13:32:15;30.89;34.84
65836;SHT30;52595;51.608;7.216;2023-05-14T13:34:41;31.38;34.23
65836;SHT30;52595;51.608;7.216;2023-05-14T13:37:08;32.18;33.33
65836;SHT30;52595;51.608;7.216;2023-05-14T13:39:33;31.27;33.53
65836;SHT30;52595;51.608;7.216;2023-05-14T13:41:59;31.47;34.41
65836;SHT30;52595;51.608;7.216;2023-05-14T13:44:25;31.18;33.94
65836;SHT30;52595;51.608;7.216;2023-05-14T13:46:51;30.32;34.64
65836;SHT30;52595;51.608;7.216;2023-05-14T13:49:16;30.56;34.90
65836;SHT30;52595;51.608;7.216;2023-05-14T13:51:42;30.69;34.04
65836;SHT30;52595;51.608;7.216;2023-05-14T13:54:08;30.98;33.61
65836;SHT30;52595;51.608;7.216;2023-05-14T13:56:33;30.65;34.48
65836;SHT30;52595;51.608;7.216;2023-05-14T13:58:59;30.31;34.99
65836;SHT30;52595;51.608;7.216;2023-05-14T14:01:24;30.91;33.85
65836;SHT30;52595;51.608;7.216;2023-05-14T14:03:50;31.08;35.53
65836;SHT30;52595;51.608;7.216;2023-05-14T14:06:15;31.34;33.51
65836;SHT30;52595;51.608;7.216;2023-05-14T14:08:40;31.88;34.64
65836;SHT30;52595;51.608;7.216;2023-05-14T14:11:06;32.46;31.93
65836;SHT30;52595;51.608;7.216;2023-05-14T14:13:31;31.82;32.45
65836;SHT30;52595;51.608;7.216;2023-05-14T14:15:57;31.84;32.97
65836;SHT30;52595;51.608;7.216;2023-05-14T14:18:22;31.65;32.17
65836;SHT30;52595;51.608;7.216;2023-05-14T14:20:48;31.08;32.31
65836;SHT30;52595;51.608;7.216;2023-05-14T14:23:13;30.97;32.10
65836;SHT30;52595;51.608;7.216;2023-05-14T14:25:38;31.01;33.37
65836;SHT30;52595;51.608;7.216;2023-05-14T14:28:04;30.82;33.37
65836;SHT30;52595;51.608;7.216;2023-05-14T14:30:29;30.97;33.98
65836;SHT30;52595;51.608;7.216;2023-05-14T14:32:55;30.35;33.94
65836;SHT30;52595;51.608;7.216;2023-05-14T14:35:21;31.00;34.26
65836;SHT30;52595;51.608;7.216;2023-05-14T14:37:46;31.03;35.47
65836;SHT30;52595;51.608;7.216;2023-05-14T14:40:17;30.73;34.37
65836;SHT30;52595;51.608;7.216;2023-05-14T14:42:43;31.51;34.07
65836;SHT30;52595;51.608;7.216;2023-05-14T14:45:09;32.26;33.29
65836;SHT30;52595;51.608;7.216;2023-05-14T14:47:34;32.06;33.91
65836;SHT30;52595;51.608;7.216;2023-05-14T14:50:00;30.91;34.49
65836;SHT30;52595;51.608;7.216;2023-05-14T14:52:26;29.94;35.61
65836;SHT30;52595;51.608;7.216;2023-05-14T14:54:53;29.75;36.71
65836;SHT30;52595;51.608;7.216;2023-05-14T14:57:19;29.71;36.04
65836;SHT30;52595;51.608;7.216;2023-05-14T14:59:46;29.27;36.10
65836;SHT30;52595;51.608;7.216;2023-05-14T15:02:11;29.13;37.60
65836;SHT30;52595;51.608;7.216;2023-05-14T15:04:36;29.37;37.35
65836;SHT30;52595;51.608;7.216;2023-05-14T15:07:03;29.40;36.44
65836;SHT30;52595;51.608;7.216;2023-05-14T15:09:29;28.99;37.87
65836;SHT30;52595;51.608;7.216;2023-05-14T15:11:55;28.57;37.79
65836;SHT30;52595;51.608;7.216;2023-05-14T15:14:20;28.24;38.45
65836;SHT30;52595;51.608;7.216;2023-05-14T15:16:46;28.02;39.47
65836;SHT30;52595;51.608;7.216;2023-05-14T15:19:11;28.00;39.44
65836;SHT30;52595;51.608;7.216;2023-05-14T15:21:36;27.31;39.73
65836;SHT30;52595;51.608;7.216;2023-05-14T15:24:02;26.83;39.92
65836;SHT30;52595;51.608;7.216;2023-05-14T15:26:28;26.57;40.51
65836;SHT30;52595;51.608;7.216;2023-05-14T15:28:54;26.29;41.89
65836;SHT30;52595;51.608;7.216;2023-05-14T15:31:19;26.15;42.83
65836;SHT30;52595;51.608;7.216;2023-05-14T15:33:45;26.17;42.75
65836;SHT30;52595;51.608;7.216;2023-05-14T15:36:10;25.82;43.40